sensor_id;sensor_type;location;lat;lon;timestamp;temperature;humidity
44182;DHT22;30436;48.888;9.202;2022-08-21T00:01:07;20.40;99.90
44182;DHT22;30436;48.888;9.202;2022-08-21T00:03:36;20.50;99.90
44182;DHT22;30436;48.888;9.202;2022-08-21T00:06:02;20.50;99.90
44182;DHT22;30436;48.888;9.202;2022-08-21T00:08:28;20.50;99.90
44182;DHT22;30436;48.888;9.202;2022-08-21T00:10:53;20.60;99.90
44182;DHT22;30436;48.888;9.202;2022-08-21T00:13:19;20.50;99.90
44182;DHT22;30436;48.888;9.202;2022-08-21T00:15:46;20.40;99.90
44182;DHT22;30436;48.888;9.202;2022-08-21T00:18:12;20.40;99.90
44182;DHT22;30436;48.888;9.202;2022-08-21T00:20:39;20.30;99.10
44182;DHT22;30436;48.888;9.202;2022-08-21T00:23:06;20.20;99.40
44182;DHT22;30436;48.888;9.202;2022-08-21T00:25:32;20.30;99.50
44182;DHT22;30436;48.888;9.202;2022-08-21T00:27:58;20.10;99.90
44182;DHT22;30436;48.888;9.202;2022-08-21T00:30:25;20.10;99.90
44182;DHT22;30436;48.888;9.202;2022-08-21T00:32:52;20.00;99.60
44182;DHT22;30436;48.888;9.202;2022-08-21T00:35:23;20.00;99.90
44182;DHT22;30436;48.888;9.202;2022-08-21T00:37:49;20.10;99.90
44182;DHT22;30436;48.888;9.202;2022-08-21T00:40:18;20.10;98.90
44182;DHT22;30436;48.888;9.202;2022-08-21T00:42:45;20.10;99.50
44182;DHT22;30436;48.888;9.202;2022-08-21T00:45:11;20.10;99.90
44182;DHT22;30436;48.888;9.202;2022-08-21T00:47:37;20.10;99.90
44182;DHT22;30436;48.888;9.202;2022-08-21T00:50:05;20.10;99.90
44182;DHT22;30436;48.888;9.202;2022-08-21T00:52:32;20.10;99.40
44182;DHT22;30436;48.888;9.202;2022-08-21T00:55:00;20.00;98.80
44182;DHT22;30436;48.888;9.202;2022-08-21T00:57:30;19.90;98.80
44182;DHT22;30436;48.888;9.202;2022-08-21T01:00:00;19.90;98.90
44182;DHT22;30436;48.888;9.202;2022-08-21T01:02:27;19.80;98.40
44182;DHT22;30436;48.888;9.202;2022-08-21T01:04:53;19.70;99.90
44182;DHT22;30436;48.888;9.202;2022-08-21T01:07:19;19.80;99.90
44182;DHT22;30436;48.888;9.202;2022-08-21T01:09:46;19.90;98.70
44182;DHT22;30436;48.888;9.202;2022-08-21T01:12:13;19.90;99.90
44182;DHT22;30436;48.888;9.202;2022-08-21T01:14:41;19.90;99.90
44182;DHT22;30436;48.888;9.202;2022-08-21T01:17:08;19.90;99.80
44182;DHT22;30436;48.888;9.202;2022-08-21T01:19:35;20.00;99.90
44182;DHT22;30436;48.888;9.202;2022-08-21T01:22:01;19.90;98.90
44182;DHT22;30436;48.888;9.202;2022-08-21T01:24:27;19.80;98.60
44182;DHT22;30436;48.888;9.202;2022-08-21T01:26:54;20.00;99.90
44182;DHT22;30436;48.888;9.202;2022-08-21T01:32:02;19.80;99.40
44182;DHT22;30436;48.888;9.202;2022-08-21T01:34:28;19.80;99.00
44182;DHT22;30436;48.888;9.202;2022-08-21T01:36:54;19.70;99.90
44182;DHT22;30436;48.888;9.202;2022-08-21T01:39:20;19.70;99.90
44182;DHT22;30436;48.888;9.202;2022-08-21T01:41:45;19.70;99.90
44182;DHT22;30436;48.888;9.202;2022-08-21T01:44:11;19.80;99.90
44182;DHT22;30436;48.888;9.202;2022-08-21T01:46:37;19.90;99.90
44182;DHT22;30436;48.888;9.202;2022-08-21T01:49:03;19.90;99.90
44182;DHT22;30436;48.888;9.202;2022-08-21T01:51:29;19.80;99.90
44182;DHT22;30436;48.888;9.202;2022-08-21T01:53:55;19.90;99.90
44182;DHT22;30436;48.888;9.202;2022-08-21T01:56:20;19.90;99.90
44182;DHT22;30436;48.888;9.202;2022-08-21T01:58:47;19.70;99.90
44182;DHT22;30436;48.888;9.202;2022-08-21T02:01:13;19.70;99.90
44182;DHT22;30436;48.888;9.202;2022-08-21T02:03:39;19.70;99.90
44182;DHT22;30436;48.888;9.202;2022-08-21T02:06:07;19.60;99.90
44182;DHT22;30436;48.888;9.202;2022-08-21T02:08:33;19.50;99.90
44182;DHT22;30436;48.888;9.202;2022-08-21T02:10:59;19.60;99.90
44182;DHT22;30436;48.888;9.202;2022-08-21T02:13:25;19.60;99.90
44182;DHT22;30436;48.888;9.202;2022-08-21T02:15:51;19.70;99.90
44182;DHT22;30436;48.888;9.202;2022-08-21T02:18:17;19.70;99.90
44182;DHT22;30436;48.888;9.202;2022-08-21T02:20:46;19.60;99.90
44182;DHT22;30436;48.888;9.202;2022-08-21T02:23:12;19.60;99.90
44182;DHT22;30436;48.888;9.202;2022-08-21T02:25:38;19.60;99.90
44182;DHT22;30436;48.888;9.202;2022-08-21T02:28:07;19.60;99.90
44182;DHT22;30436;48.888;9.202;2022-08-21T02:30:37;19.70;99.90
44182;DHT22;30436;48.888;9.202;2022-08-21T02:33:06;19.70;99.90
44182;DHT22;30436;48.888;9.202;2022-08-21T02:35:32;19.40;99.90
44182;DHT22;30436;48.888;9.202;2022-08-21T02:38:01;19.40;99.90
44182;DHT22;30436;48.888;9.202;2022-08-21T02:40:30;19.10;99.90
44182;DHT22;30436;48.888;9.202;2022-08-21T02:43:02;19.30;99.90
44182;DHT22;30436;48.888;9.202;2022-08-21T02:45:29;19.10;99.90
44182;DHT22;30436;48.888;9.202;2022-08-21T02:47:58;18.90;99.90
44182;DHT22;30436;48.888;9.202;2022-08-21T02:50:33;18.80;99.90
44182;DHT22;30436;48.888;9.202;2022-08-21T02:52:59;18.90;99.90
44182;DHT22;30436;48.888;9.202;2022-08-21T02:55:30;18.80;99.90
44182;DHT22;30436;48.888;9.202;2022-08-21T02:57:57;18.70;99.90
44182;DHT22;30436;48.888;9.202;2022-08-21T03:00:25;18.90;99.90
44182;DHT22;30436;48.888;9.202;2022-08-21T03:02:52;18.80;99.90
44182;DHT22;30436;48.888;9.202;2022-08-21T03:05:19;18.90;99.90
44182;DHT22;30436;48.888;9.202;2022-08-21T03:07:46;18.70;99.90
44182;DHT22;30436;48.888;9.202;2022-08-21T03:10:13;18.60;99.90
44182;DHT22;30436;48.888;9.202;2022-08-21T03:12:39;18.50;99.90
44182;DHT22;30436;48.888;9.202;2022-08-21T03:15:10;18.40;99.90
44182;DHT22;30436;48.888;9.202;2022-08-21T03:17:36;18.40;99.90
44182;DHT22;30436;48.888;9.202;2022-08-21T03:20:04;18.50;99.90
44182;DHT22;30436;48.888;9.202;2022-08-21T03:22:31;18.40;99.90
44182;DHT22;30436;48.888;9.202;2022-08-21T03:24:58;18.70;99.90
44182;DHT22;30436;48.888;9.202;2022-08-21T03:27:25;18.70;99.90
44182;DHT22;30436;48.888;9.202;2022-08-21T03:29:52;18.70;99.90
44182;DHT22;30436;48.888;9.202;2022-08-21T03:32:18;18.80;99.90
44182;DHT22;30436;48.888;9.202;2022-08-21T03:34:45;18.70;99.90
44182;DHT22;30436;48.888;9.202;2022-08-21T03:37:11;18.60;99.90
44182;DHT22;30436;48.888;9.202;2022-08-21T03:39:37;18.50;99.90
44182;DHT22;30436;48.888;9.202;2022-08-21T03:42:03;18.50;99.90
44182;DHT22;30436;48.888;9.202;2022-08-21T03:44:30;18.50;99.90
44182;DHT22;30436;48.888;9.202;2022-08-21T03:46:57;18.20;99.90
44182;DHT22;30436;48.888;9.202;2022-08-21T03:49:23;18.30;99.90
44182;DHT22;30436;48.888;9.202;2022-08-21T03:51:49;18.30;99.90
44182;DHT22;30436;48.888;9.202;2022-08-21T03:54:15;18.40;99.90
44182;DHT22;30436;48.888;9.202;2022-08-21T03:56:41;18.60;99.90
44182;DHT22;30436;48.888;9.202;2022-08-21T03:59:06;18.50;99.90
44182;DHT22;30436;48.888;9.202;2022-08-21T04:01:32;18.40;99.90
44182;DHT22;30436;48.888;9.202;2022-08-21T04:03:58;18.50;99.90
44182;DHT22;30436;48.888;9.202;2022-08-21T04:06:24;18.40;99.90
44182;DHT22;30436;48.888;9.202;2022-08-21T04:08:52;18.30;99.90
44182;DHT22;30436;48.888;9.202;2022-08-21T04:11:18;18.30;99.90
44182;DHT22;30436;48.888;9.202;2022-08-21T04:13:44;18.40;99.90
44182;DHT22;30436;48.888;9.202;2022-08-21T04:16:11;18.20;99.90
44182;DHT22;30436;48.888;9.202;2022-08-21T04:18:37;18.10;99.90
44182;DHT22;30436;48.888;9.202;2022-08-21T04:21:03;18.20;99.90
44182;DHT22;30436;48.888;9.202;2022-08-21T04:23:29;18.20;99.90
44182;DHT22;30436;48.888;9.202;2022-08-21T04:25:56;18.30;99.90
44182;DHT22;30436;48.888;9.202;2022-08-21T04:28:23;18.20;99.90
44182;DHT22;30436;48.888;9.202;2022-08-21T04:30:51;18.10;99.90
44182;DHT22;30436;48.888;9.202;2022-08-21T04:33:18;17.90;99.90
44182;DHT22;30436;48.888;9.202;2022-08-21T04:35:44;17.90;99.90
44182;DHT22;30436;48.888;9.202;2022-08-21T04:38:10;18.10;99.90
44182;DHT22;30436;48.888;9.202;2022-08-21T04:40:36;18.00;99.90
44182;DHT22;30436;48.888;9.202;2022-08-21T04:43:04;18.10;99.90
44182;DHT22;30436;48.888;9.202;2022-08-21T04:45:36;18.10;99.90
44182;DHT22;30436;48.888;9.202;2022-08-21T04:48:04;18.10;99.90
44182;DHT22;30436;48.888;9.202;2022-08-21T04:53:43;18.00;99.90
44182;DHT22;30436;48.888;9.202;2022-08-21T04:56:27;17.90;99.90
44182;DHT22;30436;48.888;9.202;2022-08-21T04:58:56;17.80;99.90
44182;DHT22;30436;48.888;9.202;2022-08-21T05:01:23;17.90;99.90
44182;DHT22;30436;48.888;9.202;2022-08-21T05:03:52;18.10;99.90
44182;DHT22;30436;48.888;9.202;2022-08-21T05:06:19;18.10;99.90
44182;DHT22;30436;48.888;9.202;2022-08-21T05:08:47;18.00;99.90
44182;DHT22;30436;48.888;9.202;2022-08-21T05:11:14;17.90;99.90
44182;DHT22;30436;48.888;9.202;2022-08-21T05:13:40;17.90;99.90
44182;DHT22;30436;48.888;9.202;2022-08-21T05:16:08;18.10;99.90
44182;DHT22;30436;48.888;9.202;2022-08-21T05:18:34;18.00;99.90
44182;DHT22;30436;48.888;9.202;2022-08-21T05:21:00;18.10;99.90
44182;DHT22;30436;48.888;9.202;2022-08-21T05:23:26;18.10;99.90
44182;DHT22;30436;48.888;9.202;2022-08-21T05:25:52;18.00;99.90
44182;DHT22;30436;48.888;9.202;2022-08-21T05:28:19;18.10;99.90
44182;DHT22;30436;48.888;9.202;2022-08-21T05:30:44;18.30;99.90
44182;DHT22;30436;48.888;9.202;2022-08-21T05:33:10;18.40;99.90
44182;DHT22;30436;48.888;9.202;2022-08-21T05:35:37;18.50;99.90
44182;DHT22;30436;48.888;9.202;2022-08-21T05:38:03;18.60;99.90
44182;DHT22;30436;48.888;9.202;2022-08-21T05:40:29;18.60;99.90
44182;DHT22;30436;48.888;9.202;2022-08-21T05:42:56;18.60;99.90
44182;DHT22;30436;48.888;9.202;2022-08-21T05:45:30;18.60;99.90
44182;DHT22;30436;48.888;9.202;2022-08-21T05:47:56;18.70;99.90
44182;DHT22;30436;48.888;9.202;2022-08-21T05:50:22;18.40;99.90
44182;DHT22;30436;48.888;9.202;2022-08-21T05:52:48;18.20;99.90
44182;DHT22;30436;48.888;9.202;2022-08-21T05:55:13;18.10;99.90
44182;DHT22;30436;48.888;9.202;2022-08-21T05:57:39;18.20;99.90
44182;DHT22;30436;48.888;9.202;2022-08-21T06:00:08;18.20;99.90
44182;DHT22;30436;48.888;9.202;2022-08-21T06:02:39;18.30;99.90
44182;DHT22;30436;48.888;9.202;2022-08-21T06:05:05;18.20;99.90
44182;DHT22;30436;48.888;9.202;2022-08-21T06:07:31;18.40;99.90
44182;DHT22;30436;48.888;9.202;2022-08-21T06:09:57;18.40;99.90
44182;DHT22;30436;48.888;9.202;2022-08-21T06:12:22;18.40;99.90
44182;DHT22;30436;48.888;9.202;2022-08-21T06:14:48;18.50;99.90
44182;DHT22;30436;48.888;9.202;2022-08-21T06:17:16;18.50;99.90
44182;DHT22;30436;48.888;9.202;2022-08-21T06:19:41;18.40;99.90
44182;DHT22;30436;48.888;9.202;2022-08-21T06:22:07;18.50;99.90
44182;DHT22;30436;48.888;9.202;2022-08-21T06:24:33;18.60;99.90
44182;DHT22;30436;48.888;9.202;2022-08-21T06:27:05;18.80;99.90
44182;DHT22;30436;48.888;9.202;2022-08-21T06:29:32;18.90;99.90
44182;DHT22;30436;48.888;9.202;2022-08-21T06:31:57;19.00;99.90
44182;DHT22;30436;48.888;9.202;2022-08-21T06:34:23;19.00;99.90
44182;DHT22;30436;48.888;9.202;2022-08-21T06:36:49;19.10;99.90
44182;DHT22;30436;48.888;9.202;2022-08-21T06:39:14;19.20;99.90
44182;DHT22;30436;48.888;9.202;2022-08-21T06:41:40;19.20;99.90
44182;DHT22;30436;48.888;9.202;2022-08-21T06:44:06;19.20;99.90
44182;DHT22;30436;48.888;9.202;2022-08-21T06:46:32;19.30;99.90
44182;DHT22;30436;48.888;9.202;2022-08-21T06:48:58;19.50;99.90
44182;DHT22;30436;48.888;9.202;2022-08-21T06:51:24;19.50;99.90
44182;DHT22;30436;48.888;9.202;2022-08-21T06:53:53;19.60;99.90
44182;DHT22;30436;48.888;9.202;2022-08-21T06:56:19;19.70;99.90
44182;DHT22;30436;48.888;9.202;2022-08-21T06:58:45;19.80;99.90
44182;DHT22;30436;48.888;9.202;2022-08-21T07:01:11;19.80;99.90
44182;DHT22;30436;48.888;9.202;2022-08-21T07:03:39;19.90;99.90
44182;DHT22;30436;48.888;9.202;2022-08-21T07:06:07;20.10;99.90
44182;DHT22;30436;48.888;9.202;2022-08-21T07:08:33;20.20;99.90
44182;DHT22;30436;48.888;9.202;2022-08-21T07:11:00;20.30;99.90
44182;DHT22;30436;48.888;9.202;2022-08-21T07:13:27;20.30;99.90
44182;DHT22;30436;48.888;9.202;2022-08-21T07:15:53;20.40;99.90
44182;DHT22;30436;48.888;9.202;2022-08-21T07:18:18;20.40;99.90
44182;DHT22;30436;48.888;9.202;2022-08-21T07:20:44;20.60;99.90
44182;DHT22;30436;48.888;9.202;2022-08-21T07:23:18;20.50;99.90
44182;DHT22;30436;48.888;9.202;2022-08-21T07:25:45;20.40;99.90
44182;DHT22;30436;48.888;9.202;2022-08-21T07:28:11;20.30;99.90
44182;DHT22;30436;48.888;9.202;2022-08-21T07:30:37;20.60;99.90
44182;DHT22;30436;48.888;9.202;2022-08-21T07:33:03;20.80;99.90
44182;DHT22;30436;48.888;9.202;2022-08-21T07:35:28;21.00;99.90
44182;DHT22;30436;48.888;9.202;2022-08-21T07:37:56;21.20;99.90
44182;DHT22;30436;48.888;9.202;2022-08-21T07:40:22;21.40;99.90
44182;DHT22;30436;48.888;9.202;2022-08-21T07:42:48;21.50;99.90
44182;DHT22;30436;48.888;9.202;2022-08-21T07:45:18;21.60;99.90
44182;DHT22;30436;48.888;9.202;2022-08-21T07:47:44;21.80;99.90
44182;DHT22;30436;48.888;9.202;2022-08-21T07:50:11;21.90;99.90
44182;DHT22;30436;48.888;9.202;2022-08-21T07:52:37;22.00;99.90
44182;DHT22;30436;48.888;9.202;2022-08-21T07:55:04;22.10;99.90
44182;DHT22;30436;48.888;9.202;2022-08-21T07:57:29;22.20;99.90
44182;DHT22;30436;48.888;9.202;2022-08-21T07:59:55;22.30;99.90
44182;DHT22;30436;48.888;9.202;2022-08-21T08:02:29;22.40;99.90
44182;DHT22;30436;48.888;9.202;2022-08-21T08:04:59;22.50;99.90
44182;DHT22;30436;48.888;9.202;2022-08-21T08:07:26;22.60;99.90
44182;DHT22;30436;48.888;9.202;2022-08-21T08:09:52;22.70;99.90
44182;DHT22;30436;48.888;9.202;2022-08-21T08:12:17;22.80;99.90
44182;DHT22;30436;48.888;9.202;2022-08-21T08:14:43;22.90;99.90
44182;DHT22;30436;48.888;9.202;2022-08-21T08:17:09;23.00;99.90
44182;DHT22;30436;48.888;9.202;2022-08-21T08:19:35;23.10;99.90
44182;DHT22;30436;48.888;9.202;2022-08-21T08:22:01;23.10;99.90
44182;DHT22;30436;48.888;9.202;2022-08-21T08:24:27;23.20;99.90
44182;DHT22;30436;48.888;9.202;2022-08-21T08:26:52;23.40;99.90
44182;DHT22;30436;48.888;9.202;2022-08-21T08:29:20;23.60;99.90
44182;DHT22;30436;48.888;9.202;2022-08-21T08:31:46;23.40;97.80
44182;DHT22;30436;48.888;9.202;2022-08-21T08:34:12;23.10;98.60
44182;DHT22;30436;48.888;9.202;2022-08-21T08:36:37;23.40;99.90
44182;DHT22;30436;48.888;9.202;2022-08-21T08:39:04;23.50;99.90
44182;DHT22;30436;48.888;9.202;2022-08-21T08:41:31;23.80;99.90
44182;DHT22;30436;48.888;9.202;2022-08-21T08:44:04;24.00;99.90
44182;DHT22;30436;48.888;9.202;2022-08-21T08:46:48;24.00;99.90
44182;DHT22;30436;48.888;9.202;2022-08-21T08:49:36;24.20;99.90
44182;DHT22;30436;48.888;9.202;2022-08-21T08:52:28;24.20;99.90
44182;DHT22;30436;48.888;9.202;2022-08-21T08:57:27;24.50;99.80
44182;DHT22;30436;48.888;9.202;2022-08-21T08:59:56;24.60;97.40
44182;DHT22;30436;48.888;9.202;2022-08-21T09:02:23;24.70;99.00
44182;DHT22;30436;48.888;9.202;2022-08-21T09:04:50;24.80;98.60
44182;DHT22;30436;48.888;9.202;2022-08-21T09:13:07;25.00;92.80
44182;DHT22;30436;48.888;9.202;2022-08-21T09:26:15;24.70;87.60
44182;DHT22;30436;48.888;9.202;2022-08-21T09:28:41;25.10;92.30
44182;DHT22;30436;48.888;9.202;2022-08-21T09:31:15;25.30;87.40
44182;DHT22;30436;48.888;9.202;2022-08-21T09:33:44;25.50;89.20
44182;DHT22;30436;48.888;9.202;2022-08-21T09:36:10;25.70;90.70
44182;DHT22;30436;48.888;9.202;2022-08-21T09:38:37;26.00;89.00
44182;DHT22;30436;48.888;9.202;2022-08-21T09:41:08;26.30;88.00
44182;DHT22;30436;48.888;9.202;2022-08-21T09:43:35;26.40;87.30
44182;DHT22;30436;48.888;9.202;2022-08-21T09:46:10;26.60;84.30
44182;DHT22;30436;48.888;9.202;2022-08-21T09:48:49;26.70;83.30
44182;DHT22;30436;48.888;9.202;2022-08-21T09:51:26;26.90;83.00
44182;DHT22;30436;48.888;9.202;2022-08-21T09:54:16;27.00;83.90
44182;DHT22;30436;48.888;9.202;2022-08-21T09:56:58;27.10;83.10
44182;DHT22;30436;48.888;9.202;2022-08-21T09:59:44;27.30;80.10
44182;DHT22;30436;48.888;9.202;2022-08-21T10:04:52;27.40;75.90
44182;DHT22;30436;48.888;9.202;2022-08-21T10:07:21;27.60;76.60
44182;DHT22;30436;48.888;9.202;2022-08-21T10:09:59;27.70;74.70
44182;DHT22;30436;48.888;9.202;2022-08-21T10:12:36;27.70;74.70
44182;DHT22;30436;48.888;9.202;2022-08-21T10:15:18;27.70;72.60
44182;DHT22;30436;48.888;9.202;2022-08-21T10:17:59;27.80;72.80
44182;DHT22;30436;48.888;9.202;2022-08-21T10:28:25;28.30;70.30
44182;DHT22;30436;48.888;9.202;2022-08-21T10:31:07;28.10;66.50
44182;DHT22;30436;48.888;9.202;2022-08-21T10:36:17;27.90;70.10
44182;DHT22;30436;48.888;9.202;2022-08-21T10:39:14;27.90;67.80
44182;DHT22;30436;48.888;9.202;2022-08-21T10:42:09;28.20;69.10
44182;DHT22;30436;48.888;9.202;2022-08-21T10:50:19;28.50;68.90
44182;DHT22;30436;48.888;9.202;2022-08-21T10:55:21;28.60;61.40
44182;DHT22;30436;48.888;9.202;2022-08-21T10:57:52;28.60;62.00
44182;DHT22;30436;48.888;9.202;2022-08-21T11:00:22;28.70;61.70
44182;DHT22;30436;48.888;9.202;2022-08-21T11:02:57;28.70;65.30
44182;DHT22;30436;48.888;9.202;2022-08-21T11:08:15;29.00;61.10
44182;DHT22;30436;48.888;9.202;2022-08-21T11:10:44;29.10;62.80
44182;DHT22;30436;48.888;9.202;2022-08-21T11:13:32;29.30;59.00
44182;DHT22;30436;48.888;9.202;2022-08-21T11:18:51;29.40;61.20
44182;DHT22;30436;48.888;9.202;2022-08-21T11:26:51;29.40;56.60
44182;DHT22;30436;48.888;9.202;2022-08-21T11:29:28;29.40;55.90
44182;DHT22;30436;48.888;9.202;2022-08-21T11:45:54;29.70;54.70
44182;DHT22;30436;48.888;9.202;2022-08-21T11:48:59;29.60;55.40
44182;DHT22;30436;48.888;9.202;2022-08-21T11:54:28;29.60;55.90
44182;DHT22;30436;48.888;9.202;2022-08-21T11:57:03;29.70;55.80
44182;DHT22;30436;48.888;9.202;2022-08-21T11:59:42;29.90;56.20
44182;DHT22;30436;48.888;9.202;2022-08-21T12:02:13;29.90;55.10
44182;DHT22;30436;48.888;9.202;2022-08-21T12:04:51;30.00;56.50
44182;DHT22;30436;48.888;9.202;2022-08-21T12:09:56;30.20;54.20
44182;DHT22;30436;48.888;9.202;2022-08-21T12:12:26;30.40;55.10
44182;DHT22;30436;48.888;9.202;2022-08-21T12:18:02;30.40;56.20
44182;DHT22;30436;48.888;9.202;2022-08-21T12:20:42;30.20;55.80
44182;DHT22;30436;48.888;9.202;2022-08-21T12:25:59;30.20;54.70
44182;DHT22;30436;48.888;9.202;2022-08-21T12:28:26;30.30;56.60
44182;DHT22;30436;48.888;9.202;2022-08-21T12:30:52;30.30;54.10
44182;DHT22;30436;48.888;9.202;2022-08-21T12:33:32;30.20;53.40
44182;DHT22;30436;48.888;9.202;2022-08-21T12:36:10;30.00;53.20
44182;DHT22;30436;48.888;9.202;2022-08-21T12:38:50;30.20;51.70
44182;DHT22;30436;48.888;9.202;2022-08-21T12:41:20;30.30;51.50
44182;DHT22;30436;48.888;9.202;2022-08-21T12:43:53;30.40;52.10
44182;DHT22;30436;48.888;9.202;2022-08-21T12:46:30;30.50;52.50
44182;DHT22;30436;48.888;9.202;2022-08-21T12:49:02;30.30;51.50
44182;DHT22;30436;48.888;9.202;2022-08-21T12:51:46;30.30;52.50
44182;DHT22;30436;48.888;9.202;2022-08-21T12:54:22;30.10;51.60
44182;DHT22;30436;48.888;9.202;2022-08-21T12:57:02;29.90;49.30
44182;DHT22;30436;48.888;9.202;2022-08-21T12:59:29;30.00;51.30
44182;DHT22;30436;48.888;9.202;2022-08-21T13:01:55;30.10;50.50
44182;DHT22;30436;48.888;9.202;2022-08-21T13:04:46;30.00;53.30
44182;DHT22;30436;48.888;9.202;2022-08-21T13:07:15;30.20;51.60
44182;DHT22;30436;48.888;9.202;2022-08-21T13:09:48;30.20;52.80
44182;DHT22;30436;48.888;9.202;2022-08-21T13:12:15;30.00;53.30
44182;DHT22;30436;48.888;9.202;2022-08-21T13:14:42;30.00;53.00
44182;DHT22;30436;48.888;9.202;2022-08-21T13:17:10;29.80;51.20
44182;DHT22;30436;48.888;9.202;2022-08-21T13:19:36;30.10;52.10
44182;DHT22;30436;48.888;9.202;2022-08-21T13:22:03;30.00;52.50
44182;DHT22;30436;48.888;9.202;2022-08-21T13:24:34;30.20;51.90
44182;DHT22;30436;48.888;9.202;2022-08-21T13:27:00;30.20;50.40
44182;DHT22;30436;48.888;9.202;2022-08-21T13:29:32;30.10;51.10
44182;DHT22;30436;48.888;9.202;2022-08-21T13:32:02;30.40;53.30
44182;DHT22;30436;48.888;9.202;2022-08-21T13:34:32;30.50;53.20
44182;DHT22;30436;48.888;9.202;2022-08-21T13:37:02;30.50;50.80
44182;DHT22;30436;48.888;9.202;2022-08-21T13:39:29;30.30;50.30
44182;DHT22;30436;48.888;9.202;2022-08-21T13:41:57;30.30;52.60
44182;DHT22;30436;48.888;9.202;2022-08-21T13:44:45;30.00;49.80
44182;DHT22;30436;48.888;9.202;2022-08-21T13:47:14;29.70;50.60
44182;DHT22;30436;48.888;9.202;2022-08-21T13:49:46;29.70;50.00
44182;DHT22;30436;48.888;9.202;2022-08-21T13:52:18;29.90;52.20
44182;DHT22;30436;48.888;9.202;2022-08-21T13:55:07;29.90;52.70
44182;DHT22;30436;48.888;9.202;2022-08-21T13:57:34;29.90;51.50
44182;DHT22;30436;48.888;9.202;2022-08-21T14:00:17;29.90;51.00
44182;DHT22;30436;48.888;9.202;2022-08-21T14:02:47;29.80;49.90
44182;DHT22;30436;48.888;9.202;2022-08-21T14:05:25;30.00;52.70
44182;DHT22;30436;48.888;9.202;2022-08-21T14:08:08;29.90;50.90
44182;DHT22;30436;48.888;9.202;2022-08-21T14:10:48;29.90;51.30
44182;DHT22;30436;48.888;9.202;2022-08-21T14:13:57;30.00;52.00
44182;DHT22;30436;48.888;9.202;2022-08-21T14:16:29;30.00;51.50
44182;DHT22;30436;48.888;9.202;2022-08-21T14:19:11;30.10;51.50
44182;DHT22;30436;48.888;9.202;2022-08-21T14:21:43;30.20;54.30
44182;DHT22;30436;48.888;9.202;2022-08-21T14:24:25;30.30;52.60
44182;DHT22;30436;48.888;9.202;2022-08-21T14:26:55;30.10;53.70
44182;DHT22;30436;48.888;9.202;2022-08-21T14:29:25;30.00;51.70
44182;DHT22;30436;48.888;9.202;2022-08-21T14:31:56;29.70;51.30
44182;DHT22;30436;48.888;9.202;2022-08-21T14:34:24;29.50;52.70
44182;DHT22;30436;48.888;9.202;2022-08-21T14:36:52;29.30;53.60
44182;DHT22;30436;48.888;9.202;2022-08-21T14:39:18;29.20;56.40
44182;DHT22;30436;48.888;9.202;2022-08-21T14:41:44;29.10;54.80
44182;DHT22;30436;48.888;9.202;2022-08-21T14:44:12;28.90;54.60
44182;DHT22;30436;48.888;9.202;2022-08-21T14:46:38;28.90;50.70
44182;DHT22;30436;48.888;9.202;2022-08-21T14:49:04;28.80;53.80
44182;DHT22;30436;48.888;9.202;2022-08-21T14:51:30;28.80;53.80
44182;DHT22;30436;48.888;9.202;2022-08-21T14:53:55;28.90;53.40
44182;DHT22;30436;48.888;9.202;2022-08-21T14:56:22;28.90;53.30
44182;DHT22;30436;48.888;9.202;2022-08-21T14:58:49;28.90;53.50
44182;DHT22;30436;48.888;9.202;2022-08-21T15:01:20;28.90;53.00
44182;DHT22;30436;48.888;9.202;2022-08-21T15:03:47;29.00;52.10
44182;DHT22;30436;48.888;9.202;2022-08-21T15:06:15;29.00;54.30
44182;DHT22;30436;48.888;9.202;2022-08-21T15:08:41;29.00;53.40
44182;DHT22;30436;48.888;9.202;2022-08-21T15:11:09;28.90;53.30
44182;DHT22;30436;48.888;9.202;2022-08-21T15:13:36;28.90;53.00
44182;DHT22;30436;48.888;9.202;2022-08-21T15:16:02;28.90;51.50
44182;DHT22;30436;48.888;9.202;2022-08-21T15:18:29;28.90;53.00
44182;DHT22;30436;48.888;9.202;2022-08-21T15:20:55;28.70;50.90
44182;DHT22;30436;48.888;9.202;2022-08-21T15:23:22;28.80;51.90
44182;DHT22;30436;48.888;9.202;2022-08-21T15:25:48;29.00;52.50
44182;DHT22;30436;48.888;9.202;2022-08-21T15:28:15;29.00;52.80
44182;DHT22;30436;48.888;9.202;2022-08-21T15:30:42;29.00;52.10
44182;DHT22;30436;48.888;9.202;2022-08-21T15:33:08;29.00;52.30
44182;DHT22;30436;48.888;9.202;2022-08-21T15:35:34;29.20;52.10
44182;DHT22;30436;48.888;9.202;2022-08-21T15:38:00;29.20;50.70
44182;DHT22;30436;48.888;9.202;2022-08-21T15:40:26;29.20;53.40
44182;DHT22;30436;48.888;9.202;2022-08-21T15:42:57;29.20;53.00
44182;DHT22;30436;48.888;9.202;2022-08-21T15:45:24;29.20;53.70
44182;DHT22;30436;48.888;9.202;2022-08-21T15:47:50;29.30;54.10
44182;DHT22;30436;48.888;9.202;2022-08-21T15:50:17;29.20;52.70
44182;DHT22;30436;48.888;9.202;2022-08-21T15:52:42;29.10;53.10
44182;DHT22;30436;48.888;9.202;2022-08-21T15:55:09;29.20;52.30
44182;DHT22;30436;48.888;9.202;2022-08-21T15:57:36;29.00;53.90
44182;DHT22;30436;48.888;9.202;2022-08-21T16:00:15;28.90;53.50
44182;DHT22;30436;48.888;9.202;2022-08-21T16:02:45;28.90;52.10
44182;DHT22;30436;48.888;9.202;2022-08-21T16:05:12;28.90;49.50
44182;DHT22;30436;48.888;9.202;2022-08-21T16:07:39;28.50;52.30
44182;DHT22;30436;48.888;9.202;2022-08-21T16:10:05;28.50;52.10
44182;DHT22;30436;48.888;9.202;2022-08-21T16:12:34;28.50;51.90
44182;DHT22;30436;48.888;9.202;2022-08-21T16:15:01;28.60;53.90
44182;DHT22;30436;48.888;9.202;2022-08-21T16:17:33;28.70;54.10
44182;DHT22;30436;48.888;9.202;2022-08-21T16:20:01;28.60;54.00
44182;DHT22;30436;48.888;9.202;2022-08-21T16:22:27;28.60;54.20
44182;DHT22;30436;48.888;9.202;2022-08-21T16:24:52;28.60;56.00
44182;DHT22;30436;48.888;9.202;2022-08-21T16:27:18;28.50;54.10
44182;DHT22;30436;48.888;9.202;2022-08-21T16:29:45;28.40;53.30
44182;DHT22;30436;48.888;9.202;2022-08-21T16:32:11;28.40;54.90
44182;DHT22;30436;48.888;9.202;2022-08-21T16:34:39;28.40;55.40
44182;DHT22;30436;48.888;9.202;2022-08-21T16:37:07;28.40;53.80
44182;DHT22;30436;48.888;9.202;2022-08-21T16:39:33;28.20;54.80
44182;DHT22;30436;48.888;9.202;2022-08-21T16:41:59;28.30;54.90
44182;DHT22;30436;48.888;9.202;2022-08-21T16:44:24;28.20;54.60
44182;DHT22;30436;48.888;9.202;2022-08-21T16:46:51;28.20;54.60
44182;DHT22;30436;48.888;9.202;2022-08-21T16:49:17;28.20;55.50
44182;DHT22;30436;48.888;9.202;2022-08-21T16:51:42;28.00;55.80
44182;DHT22;30436;48.888;9.202;2022-08-21T16:54:09;28.10;54.60
44182;DHT22;30436;48.888;9.202;2022-08-21T16:56:34;27.90;54.70
44182;DHT22;30436;48.888;9.202;2022-08-21T16:59:02;28.00;56.70
44182;DHT22;30436;48.888;9.202;2022-08-21T17:01:31;28.00;58.30
44182;DHT22;30436;48.888;9.202;2022-08-21T17:03:58;27.90;52.50